Edson, South Dakota
Current Conditions -  °F | °C
As of 1:55 PM on Friday 28 Nov 2014 (Local Time) from KPHP Reporting Station
Clear Clear  
Wind Chill: 61°   Ceiling: Unl
Heat Index: 61°   Visibility: 10mi
Dew Point: 31°   Wind: 3mph
Humidity: 32%   Direction: 120°ESE
Pressure: 29.58"   Gusts: NA
Location:  44.8511°N, 102.128°W
Report Text: KPHP 282055Z AUTO 12003KT 10SM CLR 16/M01 A2958 RMK AO2 SLP020 T01611006 56025
Loading
Personal Weather Stations






























Interactive Weather Map New forecast layout! Learn more

10-Day Weather Forecast

Advertisements
Track Severe Weather on mobile